• Join FlightAware (Why Join?)
  • Login
  • US Flag 
12:58PM EDT


 

Airport Tracker/Info


-or-


 

Live Flight TrackerFlight Track Log ✈ AAL993 ✈ 31-Oct-2013 ✈ KMIA - MNMG / MGA

Flight Track Log - Related Links

Times and Time Zones

All times are in EDT time to prevent confusion due to time zone crossing. See the AAL993 flight status page for this flight to view local times or setup timezone preferences in your user account.

Time Position Orientation Groundspeed Altitude Reporting Facility
EDT Latitude Longitude Course Direction KTS MPH feet Rate Location/Type
07:15PM 25.8006 -80.2606 193° South 191 220 700  Level Miami Center
07:16PM 25.7669 -80.1836 116° Southeast 261 300 3,100 2,220 Climbing Miami Center
07:17PM 25.4402 -80.4585 207° Southwest  Level Estimated
07:17PM 25.7150 -80.1683 165° South 249 287 5,200  Level Miami Center
07:17PM 25.7044 -80.1703 189° South 257 296 5,800 2,280 Climbing Miami Center
07:18PM 25.3217 -80.5144 222° Southwest  Level Estimated
07:18PM 25.6436 -80.1803 188° South 273 314 7,500  Level Miami Center
07:19PM 25.2033 -80.5702 189° South  Level Estimated
07:19PM 25.5739 -80.2197 207° Southwest 273 314 10,000  Level Miami Center
07:20PM 25.0848 -80.6259 193° South  Level Estimated
07:20PM 25.4933 -80.2614 205° Southwest 297 342 11,200  Level Miami Center
07:21PM 25.4025 -80.3069 204° Southwest 330 380 13,300 2,160 Climbing Miami Center
07:22PM 25.3097 -80.3503 203° Southwest 356 410 15,600 2,160 Climbing Miami Center
07:23PM 25.2144 -80.3981 204° Southwest 368 423 17,700 1,980 Climbing Miami Center
07:24PM 25.1131 -80.4481 204° Southwest 382 440 19,600 1,920 Climbing Miami Center
07:25PM 25.0114 -80.5000 205° Southwest 393 452 21,600 1,800 Climbing Miami Center
07:26PM 24.9036 -80.5519 204° Southwest 410 472 23,300 1,620 Climbing Miami Center
07:27PM 24.7981 -80.6036 204° Southwest 415 478 24,900 1,440 Climbing Miami Center
07:28PM 24.6858 -80.6594 204° Southwest 427 491 26,200 1,260 Climbing Miami Center
07:29PM 24.5717 -80.7156 204° Southwest 439 505 27,500 1,200 Climbing Miami Center
07:30PM 24.4531 -80.7733 204° Southwest 451 519 28,700 1,080 Climbing Miami Center
07:31PM 24.3306 -80.8267 202° Southwest 464 534 29,700 960 Climbing Miami Center
07:32PM 24.2078 -80.8842 203° Southwest 477 549 30,700 1,140 Climbing Miami Center
07:33PM 24.0808 -80.9461 204° Southwest 483 556 32,000 1,260 Climbing Miami Center
07:35PM 23.8612 -81.0502 203° Southwest  Level Estimated
07:42PM 22.9903 -81.4593 203° Southwest  Level Estimated
07:43PM 22.8669 -81.5168 203° Southwest  Level Estimated
07:44PM 22.7434 -81.5742 203° Southwest  Level Estimated
07:45PM 22.6199 -81.6315 203° Southwest  Level Estimated
07:46PM 22.4964 -81.6887 203° Southwest  Level Estimated
07:47PM 22.3729 -81.7458 203° Southwest  Level Estimated
07:48PM 22.2494 -81.8028 203° Southwest  Level Estimated
07:49PM 22.1258 -81.8597 203° Southwest  Level Estimated
07:50PM 22.0022 -81.9165 203° Southwest  Level Estimated
07:51PM 21.8786 -81.9732 203° Southwest  Level Estimated
07:52PM 21.7550 -82.0298 203° Southwest  Level Estimated
07:53PM 21.6314 -82.0863 203° Southwest  Level Estimated
07:54PM 21.5077 -82.1427 203° Southwest  Level Estimated
07:55PM 21.3841 -82.1991 203° Southwest  Level Estimated
07:56PM 21.2604 -82.2553 203° Southwest  Level Estimated
07:57PM 21.1367 -82.3114 203° Southwest  Level Estimated
07:58PM 21.0129 -82.3674 203° Southwest  Level Estimated
07:59PM 20.8892 -82.4233 203° Southwest  Level Estimated
08:00PM 20.7654 -82.4792 203° Southwest  Level Estimated
08:01PM 20.6416 -82.5349 203° Southwest  Level Estimated
08:02PM 20.5178 -82.5906 203° Southwest  Level Estimated
08:03PM 20.3940 -82.6462 203° Southwest  Level Estimated
08:04PM 20.2702 -82.7017 203° Southwest  Level Estimated
08:05PM 20.1463 -82.7570 203° Southwest  Level Estimated
08:06PM 20.0224 -82.8123 203° Southwest  Level Estimated
08:07PM 19.8986 -82.8676 203° Southwest  Level Estimated
08:08PM 19.7746 -82.9227 203° Southwest  Level Estimated
08:09PM 19.6507 -82.9777 203° Southwest  Level Estimated
08:10PM 19.5268 -83.0327 203° Southwest  Level Estimated
08:11PM 19.4028 -83.0876 203° Southwest  Level Estimated
08:12PM 19.2789 -83.1424 203° Southwest  Level Estimated
08:13PM 19.1549 -83.1971 203° Southwest  Level Estimated
08:14PM 19.0309 -83.2517 203° Southwest  Level Estimated
08:15PM 18.9068 -83.3063 203° Southwest  Level Estimated
08:16PM 18.7828 -83.3607 203° Southwest  Level Estimated
08:17PM 18.6588 -83.4151 203° Southwest  Level Estimated
08:18PM 18.5347 -83.4694 203° Southwest  Level Estimated
08:19PM 18.4106 -83.5237 203° Southwest  Level Estimated
08:20PM 18.2865 -83.5778 203° Southwest  Level Estimated
08:21PM 18.1624 -83.6319 202° Southwest  Level Estimated
08:22PM 18.0383 -83.6859 202° Southwest  Level Estimated
08:23PM 17.9141 -83.7398 202° Southwest  Level Estimated
08:24PM 17.7900 -83.7936 202° Southwest  Level Estimated
08:25PM 17.6658 -83.8474 202° Southwest  Level Estimated
08:26PM 17.5416 -83.9011 202° Southwest  Level Estimated
08:27PM 17.4174 -83.9547 202° Southwest  Level Estimated
08:28PM 17.2932 -84.0082 202° Southwest  Level Estimated
08:29PM 17.1689 -84.0617 202° Southwest  Level Estimated
08:30PM 17.0447 -84.1151 202° Southwest  Level Estimated
08:31PM 16.9204 -84.1684 202° Southwest  Level Estimated
08:32PM 16.7962 -84.2217 202° Southwest  Level Estimated
08:33PM 16.6719 -84.2749 202° Southwest  Level Estimated
08:34PM 16.5476 -84.3280 202° Southwest  Level Estimated
08:35PM 16.4233 -84.3811 202° Southwest  Level Estimated
08:36PM 16.2989 -84.4341 202° Southwest  Level Estimated
08:37PM 16.1746 -84.4870 202° Southwest  Level Estimated
08:38PM 16.0502 -84.5398 202° Southwest  Level Estimated
08:39PM 15.9259 -84.5926 202° Southwest  Level Estimated
08:40PM 15.8015 -84.6453 202° Southwest  Level Estimated
08:41PM 15.6771 -84.6980 202° Southwest  Level Estimated
08:42PM 15.5527 -84.7506 202° Southwest  Level Estimated
08:43PM 15.4283 -84.8031 202° Southwest  Level Estimated
08:44PM 15.3039 -84.8556 202° Southwest  Level Estimated
08:45PM 15.1794 -84.9080 202° Southwest  Level Estimated
08:46PM 15.0550 -84.9603 202° Southwest  Level Estimated
08:47PM 14.9305 -85.0126 202° Southwest  Level Estimated
08:48PM 14.8060 -85.0648 202° Southwest  Level Estimated
08:49PM 14.6815 -85.1170 202° Southwest  Level Estimated
08:50PM 14.5570 -85.1691 202° Southwest  Level Estimated
08:51PM 14.4325 -85.2211 202° Southwest  Level Estimated
08:52PM 14.3080 -85.2731 202° Southwest  Level Estimated
08:53PM 14.1835 -85.3251 202° Southwest  Level Estimated
08:54PM 14.0589 -85.3769 202° Southwest  Level Estimated
08:55PM 13.9344 -85.4287 202° Southwest  Level Estimated
08:56PM 13.8098 -85.4805 202° Southwest  Level Estimated
08:57PM 13.6852 -85.5322 202° Southwest  Level Estimated
08:58PM 13.5606 -85.5838 202° Southwest  Level Estimated
08:59PM 13.4327 -85.6368 202° Southwest  Level Estimated
09:00PM 13.3049 -85.6897 202° Southwest  Level Estimated
09:01PM 13.1770 -85.7425 202° Southwest  Level Estimated
09:02PM 13.0491 -85.7953 202° Southwest  Level Estimated
09:03PM 12.9211 -85.8481 202° Southwest  Level Estimated
09:04PM 12.7932 -85.9007 202° Southwest  Level Estimated
09:05PM 12.6653 -85.9533 202° Southwest  Level Estimated
09:06PM 12.5373 -86.0059 202° Southwest  Level Estimated
09:07PM 12.4094 -86.0584 202° Southwest  Level Estimated
09:08PM 12.2814 -86.1109 202° Southwest  Level Estimated
09:09PM 12.1534 -86.1633 202° Southwest  Level Estimated
09:10PM 12.1415 -86.1682 202° Southwest  Level Estimated
09:11PM 12.1415 -86.1682 26° Northeast  Level Estimated
09:12PM 12.1415 -86.1682 26° Northeast  Level Estimated
09:13PM 12.1415 -86.1682 26° Northeast  Level Estimated
09:14PM 12.1415 -86.1682 26° Northeast  Level Estimated
09:15PM 12.1415 -86.1682 26° Northeast  Level Estimated